X  Κλείσε Στοιχεία αεροπορικών μετεωρολογικών δεδομένων METAR        LYNI Nis Airport
θερμοκρασία
73°F θερμοκρασία
66°F Σημείο δρόσου
78% Υγρασία



Ανεμος
7 MPH
11 KM/H
3 M/S
6 KTS



120°
ANA
Τρέχουσες συνθήκες

Mostly Clear Σχεδόν ξεκάθαρα
πίεση 1012 (hPa) - 29.89 (inHg)
Ορατότητα 6 (μίλι) - 10 (km)
Aεροδρόμιο
Κωδικός αεροδρομίου LYNI

Τοποθεσία: Nis Airport
Απόσταση: 14 (mi)

Metar:
METAR LYNI 232230Z 12006KT 080V140 CAVOK 23/19 Q1013 NOSIG

ώρα: 24-07-2024 00:30 CEST